Time;durP1;ratioP1;P1;durP2;ratioP2;P2;SDS_P1;SDS_P2;PMS_P1;PMS_P2;Temp;Humidity;BMP_temperature;BMP_pressure;BME280_temperature;BME280_humidity;BME280_pressure;Samples;Min_cycle;Max_cycle;Signal;HPM_P1;HPM_P2
2024/01/15 00:02:26;;;;;;;4.60;2.50;;;;;;;-6.51;78.03;94520.80;110599;1274;22993;-76
2024/01/15 00:04:54;;;;;;;3.90;2.30;;;;;;;-6.50;78.05;94517.05;110598;1274;23018;-76
2024/01/15 00:07:23;;;;;;;3.40;1.80;;;;;;;-6.49;77.83;94508.53;110601;1274;22098;-76
2024/01/15 00:09:51;;;;;;;19.80;8.80;;;;;;;-6.49;77.68;94506.80;110555;1275;22120;-76
2024/01/15 00:12:19;;;;;;;16.80;8.40;;;;;;;-6.54;78.27;94502.91;110601;1274;22277;-76
2024/01/15 00:14:47;;;;;;;3.50;2.00;;;;;;;-6.55;78.14;94503.75;110555;1274;22590;-76
2024/01/15 00:17:15;;;;;;;3.30;1.70;;;;;;;-6.53;78.16;94495.94;110537;1275;22116;-76
2024/01/15 00:19:44;;;;;;;3.70;1.80;;;;;;;-6.55;78.04;94497.40;110608;1274;22136;-76
2024/01/15 00:22:12;;;;;;;5.30;2.20;;;;;;;-6.54;78.50;94502.42;110566;1274;22135;-76
2024/01/15 00:24:40;;;;;;;6.30;3.10;;;;;;;-6.53;78.31;94501.07;110595;1274;22919;-76
2024/01/15 00:27:08;;;;;;;4.90;2.40;;;;;;;-6.54;78.19;94504.30;110596;1274;22262;-76
2024/01/15 00:29:37;;;;;;;6.20;3.20;;;;;;;-6.48;78.67;94501.02;110562;1274;23091;-76
2024/01/15 00:32:05;;;;;;;11.30;4.70;;;;;;;-6.47;79.09;94496.96;110598;1274;22140;-76
2024/01/15 00:34:33;;;;;;;4.20;2.30;;;;;;;-6.38;79.10;94490.70;110536;1274;22130;-76
2024/01/15 00:37:02;;;;;;;20.80;9.70;;;;;;;-6.22;79.72;94484.45;110594;1274;22107;-76
2024/01/15 00:39:31;;;;;;;6.90;3.10;;;;;;;-6.09;79.41;94479.00;110616;1274;22226;-75
2024/01/15 00:41:59;;;;;;;3.40;1.90;;;;;;;-6.00;79.05;94472.02;110561;1275;22119;-76
2024/01/15 00:44:27;;;;;;;3.00;1.40;;;;;;;-5.85;79.29;94469.80;110605;1274;22818;-76
2024/01/15 00:46:55;;;;;;;2.60;1.50;;;;;;;-5.70;79.21;94471.22;110602;1274;22283;-76
2024/01/15 00:49:24;;;;;;;2.50;1.40;;;;;;;-5.59;79.23;94462.92;110584;1274;22190;-76
2024/01/15 00:51:52;;;;;;;26.30;12.80;;;;;;;-5.50;78.78;94460.75;110566;1274;22139;-76
2024/01/15 00:54:20;;;;;;;34.30;16.90;;;;;;;-5.52;79.05;94458.13;110609;1274;22132;-76
2024/01/15 00:56:49;;;;;;;39.70;16.50;;;;;;;-5.49;79.33;94454.44;110542;1275;22270;-76
2024/01/15 00:59:17;;;;;;;29.20;12.90;;;;;;;-5.37;79.39;94460.86;110525;1274;22116;-75
2024/01/15 01:01:46;;;;;;;34.50;15.40;;;;;;;-5.36;78.62;94452.14;110596;1274;22137;-76
2024/01/15 01:04:15;;;;;;;38.40;16.80;;;;;;;-5.35;78.95;94447.55;110555;1274;23054;-76
2024/01/15 01:06:44;;;;;;;40.30;18.20;;;;;;;-5.30;79.07;94443.05;110535;1274;22929;-75
2024/01/15 01:09:12;;;;;;;39.70;18.30;;;;;;;-5.19;79.32;94440.89;110604;1274;22110;-76
2024/01/15 01:11:41;;;;;;;31.10;13.80;;;;;;;-5.09;78.77;94435.97;110551;1274;22194;-75
2024/01/15 01:14:09;;;;;;;50.90;23.20;;;;;;;-4.98;78.76;94428.67;110604;1274;22205;-76
2024/01/15 01:16:38;;;;;;;27.40;14.30;;;;;;;-4.87;78.69;94424.10;110630;1274;22157;-76
2024/01/15 01:19:07;;;;;;;33.90;14.40;;;;;;;-4.77;78.69;94417.95;110606;1274;22161;-76
2024/01/15 01:21:36;;;;;;;38.50;18.20;;;;;;;-4.67;78.17;94409.41;110601;1274;22164;-76
2024/01/15 01:24:05;;;;;;;44.90;20.90;;;;;;;-4.63;78.09;94405.20;110621;1270;22135;-75
2024/01/15 01:26:33;;;;;;;32.50;15.70;;;;;;;-4.56;78.02;94398.13;110352;1274;22129;-75
2024/01/15 01:29:02;;;;;;;33.50;14.60;;;;;;;-4.51;77.83;94394.63;110548;1274;22150;-76
2024/01/15 01:31:30;;;;;;;38.20;19.50;;;;;;;-4.49;77.43;94394.98;110613;1274;22891;-75
2024/01/15 01:33:58;;;;;;;54.30;26.60;;;;;;;-4.49;77.68;94387.45;110619;1274;22207;-75
2024/01/15 01:36:27;;;;;;;56.50;26.90;;;;;;;-4.47;77.85;94390.39;110531;1274;22180;-76
2024/01/15 01:38:55;;;;;;;65.50;32.80;;;;;;;-4.49;78.44;94383.14;110571;1274;22274;-75
2024/01/15 01:41:24;;;;;;;69.40;31.50;;;;;;;-4.47;78.91;94377.86;110609;1274;22148;-76
2024/01/15 01:43:52;;;;;;;48.40;21.80;;;;;;;-4.43;78.94;94372.11;110573;1274;22151;-75
2024/01/15 01:46:20;;;;;;;48.00;21.10;;;;;;;-4.35;78.98;94366.08;110583;1274;22855;-75
2024/01/15 01:48:49;;;;;;;46.60;19.90;;;;;;;-4.33;78.55;94361.31;110614;1274;22111;-76
2024/01/15 01:51:17;;;;;;;27.80;13.10;;;;;;;-4.33;78.68;94360.63;110623;1274;22122;-76
2024/01/15 01:53:45;;;;;;;42.30;18.50;;;;;;;-4.29;78.86;94361.89;110547;1274;22188;-75
2024/01/15 01:56:14;;;;;;;39.70;17.40;;;;;;;-4.27;78.42;94357.12;110561;1274;22573;-75
2024/01/15 01:58:44;;;;;;;40.50;19.20;;;;;;;-4.31;78.18;94351.21;110624;1274;22310;-76
2024/01/15 02:01:12;;;;;;;44.70;19.30;;;;;;;-4.31;78.23;94345.38;110537;1274;22598;-75
2024/01/15 02:03:41;;;;;;;43.20;20.70;;;;;;;-4.41;77.55;94340.73;110558;1274;22873;-75
2024/01/15 02:06:09;;;;;;;30.70;14.20;;;;;;;-4.44;78.02;94341.02;110604;1274;22303;-76
2024/01/15 02:08:38;;;;;;;31.30;13.70;;;;;;;-4.41;78.22;94337.30;110596;1274;22837;-76
2024/01/15 02:11:07;;;;;;;19.90;10.00;;;;;;;-4.37;78.21;94338.41;110545;1274;22120;-76
2024/01/15 02:13:35;;;;;;;8.10;4.50;;;;;;;-4.41;77.97;94333.52;110519;1274;22208;-76
2024/01/15 02:16:03;;;;;;;13.30;5.40;;;;;;;-4.45;78.29;94333.64;110549;1264;22126;-75
2024/01/15 02:18:44;;;;;;;10.70;4.90;;;;;;;-4.41;78.75;94334.73;110612;1267;22154;-76
2024/01/15 02:21:13;;;;;;;13.50;6.00;;;;;;;-4.33;78.54;94330.23;110569;1274;22217;-76
2024/01/15 02:23:41;;;;;;;22.60;11.20;;;;;;;-4.24;78.60;94327.14;110636;1274;22152;-76
2024/01/15 02:26:09;;;;;;;15.30;7.40;;;;;;;-4.28;78.13;94322.92;110505;1274;22124;-75
2024/01/15 02:28:37;;;;;;;22.30;10.90;;;;;;;-4.26;78.40;94320.57;110589;1274;22598;-75
2024/01/15 02:31:05;;;;;;;23.30;11.40;;;;;;;-4.23;78.60;94318.90;110513;1274;22125;-76
2024/01/15 02:33:34;;;;;;;28.20;14.20;;;;;;;-4.19;78.45;94311.08;110613;1274;22320;-75
2024/01/15 02:36:02;;;;;;;33.90;15.10;;;;;;;-4.24;78.15;94306.35;110628;1274;22319;-76
2024/01/15 02:38:30;;;;;;;26.20;12.40;;;;;;;-4.20;78.59;94304.55;110618;1274;22303;-75
2024/01/15 02:40:58;;;;;;;56.30;23.70;;;;;;;-4.15;78.69;94299.63;110582;1274;22276;-75
2024/01/15 02:43:27;;;;;;;57.80;25.30;;;;;;;-4.13;78.52;94294.02;110614;1274;22979;-75
2024/01/15 02:45:55;;;;;;;43.30;19.00;;;;;;;-4.05;78.74;94299.11;110498;1274;22112;-75
2024/01/15 02:48:23;;;;;;;37.90;17.70;;;;;;;-4.01;78.98;94288.35;110621;1274;22891;-75
2024/01/15 02:50:51;;;;;;;34.50;17.40;;;;;;;-3.93;78.83;94287.80;110626;1274;23051;-75
2024/01/15 02:53:19;;;;;;;47.70;22.60;;;;;;;-3.81;78.92;94287.10;110634;1274;22302;-75
2024/01/15 02:55:47;;;;;;;38.00;17.90;;;;;;;-3.72;78.46;94283.13;110481;1274;22131;-75
2024/01/15 02:58:16;;;;;;;43.00;20.50;;;;;;;-3.69;78.21;94278.00;110576;1274;22770;-75
2024/01/15 03:00:44;;;;;;;41.80;18.40;;;;;;;-3.70;78.35;94279.02;110512;1274;22630;-75
2024/01/15 03:03:12;;;;;;;44.60;22.90;;;;;;;-3.64;78.54;94273.10;110633;1274;22132;-75
2024/01/15 03:05:41;;;;;;;43.10;21.00;;;;;;;-3.59;78.46;94269.20;110616;1274;22767;-75
2024/01/15 03:08:09;;;;;;;38.80;20.60;;;;;;;-3.54;78.44;94269.64;110613;1274;22191;-75
2024/01/15 03:10:37;;;;;;;33.80;18.00;;;;;;;-3.43;78.44;94263.40;110586;1274;22199;-75
2024/01/15 03:13:06;;;;;;;46.90;22.60;;;;;;;-3.34;78.29;94259.39;110596;1274;22125;-75
2024/01/15 03:15:34;;;;;;;34.20;19.00;;;;;;;-3.33;77.64;94254.26;110539;1274;22126;-75
2024/01/15 03:18:02;;;;;;;42.40;21.70;;;;;;;-3.38;77.93;94252.45;110605;1259;22133;-75
2024/01/15 03:20:30;;;;;;;48.40;22.40;;;;;;;-3.37;78.36;94255.23;110634;1274;22222;-75
2024/01/15 03:22:58;;;;;;;40.90;22.10;;;;;;;-3.32;78.32;94246.19;110623;1274;22111;-75
2024/01/15 03:25:26;;;;;;;34.00;16.30;;;;;;;-3.26;78.36;94253.65;110604;1274;22106;-75
2024/01/15 03:27:55;;;;;;;31.80;16.20;;;;;;;-3.18;78.02;94254.79;110493;1274;22192;-75
2024/01/15 03:30:23;;;;;;;25.40;13.30;;;;;;;-3.20;77.56;94250.11;110619;1274;22239;-75
2024/01/15 03:32:52;;;;;;;28.90;14.20;;;;;;;-3.23;77.53;94247.67;110570;1274;22147;-75
2024/01/15 03:35:20;;;;;;;27.10;13.30;;;;;;;-3.15;77.96;94234.19;110535;1274;22737;-75
2024/01/15 03:37:48;;;;;;;22.90;10.70;;;;;;;-3.09;77.80;94229.61;110547;1274;22129;-75
2024/01/15 03:40:16;;;;;;;16.80;8.70;;;;;;;-3.03;77.78;94232.41;110642;1274;22892;-75
2024/01/15 03:42:51;;;;;;;12.20;6.10;;;;;;;-2.95;77.79;94223.04;110620;1274;22429;-75
2024/01/15 03:45:19;;;;;;;11.70;6.50;;;;;;;-2.90;77.34;94223.44;110567;1274;22132;-75
2024/01/15 03:47:47;;;;;;;10.50;5.80;;;;;;;-2.86;77.09;94216.10;110587;1274;22176;-75
2024/01/15 03:50:16;;;;;;;10.90;6.00;;;;;;;-2.85;76.95;94206.63;110564;1274;22155;-75
2024/01/15 03:52:44;;;;;;;10.00;5.40;;;;;;;-2.79;77.37;94209.27;110600;1260;22251;-75
2024/01/15 03:55:12;;;;;;;5.90;4.30;;;;;;;-2.73;77.20;94200.55;110635;1274;22369;-75
2024/01/15 03:57:40;;;;;;;7.20;4.20;;;;;;;-2.71;77.09;94194.55;110581;1274;22199;-75
2024/01/15 04:00:09;;;;;;;8.20;4.50;;;;;;;-2.68;76.88;94186.83;110610;1274;22753;-76
2024/01/15 04:02:37;;;;;;;13.60;4.90;;;;;;;-2.63;77.02;94177.08;110607;1274;22817;-75
2024/01/15 04:05:06;;;;;;;9.00;4.70;;;;;;;-2.61;76.82;94182.59;110505;1274;22102;-75
2024/01/15 04:07:34;;;;;;;9.20;5.10;;;;;;;-2.60;76.74;94183.80;110603;1274;22131;-75
2024/01/15 04:10:02;;;;;;;15.70;7.80;;;;;;;-2.58;76.88;94191.58;110596;1270;22139;-76
2024/01/15 04:12:30;;;;;;;21.00;9.90;;;;;;;-2.51;76.87;94196.27;110613;1274;22189;-75
2024/01/15 04:14:58;;;;;;;145.70;61.90;;;;;;;-2.50;76.98;94193.19;110598;1274;22338;-75
2024/01/15 04:17:27;;;;;;;96.80;40.50;;;;;;;-2.48;77.23;94196.30;110600;1274;22862;-75
2024/01/15 04:19:56;;;;;;;14.60;7.40;;;;;;;-2.45;77.18;94177.73;110558;1274;22104;-75
2024/01/15 04:22:25;;;;;;;12.10;6.70;;;;;;;-2.41;77.45;94179.83;110613;1274;22086;-75
2024/01/15 04:24:53;;;;;;;17.80;9.30;;;;;;;-2.34;78.08;94175.91;110644;1274;22815;-75
2024/01/15 04:27:22;;;;;;;13.70;7.10;;;;;;;-2.27;78.22;94175.63;110614;1274;22167;-75
2024/01/15 04:29:50;;;;;;;20.10;10.10;;;;;;;-2.19;78.20;94166.91;110611;1274;22222;-75
2024/01/15 04:32:18;;;;;;;13.80;7.40;;;;;;;-2.08;78.45;94164.55;110643;1274;22172;-75
2024/01/15 04:34:47;;;;;;;13.20;7.10;;;;;;;-1.98;78.40;94161.00;110613;1274;22130;-75
2024/01/15 04:37:15;;;;;;;15.00;8.00;;;;;;;-1.85;78.70;94157.98;110571;1274;22127;-75
2024/01/15 04:39:44;;;;;;;29.30;17.40;;;;;;;-1.79;78.39;94155.60;110611;1274;22130;-75
2024/01/15 04:42:12;;;;;;;12.60;6.80;;;;;;;-1.77;78.04;94152.33;110564;1274;22091;-75
2024/01/15 04:44:40;;;;;;;27.70;14.60;;;;;;;-1.76;78.55;94151.46;110623;1274;22204;-75
2024/01/15 04:47:08;;;;;;;42.20;22.00;;;;;;;-1.75;78.79;94146.83;110560;1274;22153;-75
2024/01/15 04:49:36;;;;;;;32.60;19.10;;;;;;;-1.71;78.74;94150.46;110620;1274;22993;-75
2024/01/15 04:52:05;;;;;;;8.90;5.20;;;;;;;-1.67;78.49;94149.28;110592;1274;22119;-75
2024/01/15 04:54:33;;;;;;;6.80;3.50;;;;;;;-1.64;78.62;94146.55;110633;1274;22312;-77
2024/01/15 04:57:02;;;;;;;8.60;4.20;;;;;;;-1.59;78.76;94138.11;110618;1274;22122;-76
2024/01/15 04:59:30;;;;;;;20.00;11.70;;;;;;;-1.54;78.95;94133.48;110635;1274;22138;-77
2024/01/15 05:01:58;;;;;;;7.10;4.50;;;;;;;-1.53;78.96;94136.07;110627;1262;22127;-77
2024/01/15 05:04:26;;;;;;;5.30;2.20;;;;;;;-1.50;79.43;94133.84;110549;1274;22884;-77
2024/01/15 05:06:55;;;;;;;18.20;10.90;;;;;;;-1.44;80.04;94136.95;110515;1274;22119;-76
2024/01/15 05:09:23;;;;;;;26.80;14.90;;;;;;;-1.44;79.97;94136.63;110539;1274;22163;-77
2024/01/15 05:11:51;;;;;;;29.70;14.30;;;;;;;-1.45;79.92;94125.91;110573;1274;22777;-76
2024/01/15 05:14:20;;;;;;;26.30;14.40;;;;;;;-1.46;79.90;94130.58;110623;1274;22131;-77
2024/01/15 05:16:49;;;;;;;10.80;6.10;;;;;;;-1.48;79.96;94124.02;110627;1274;22923;-77
2024/01/15 05:19:18;;;;;;;4.80;2.90;;;;;;;-1.47;80.69;94116.78;110618;1274;22138;-77
2024/01/15 05:21:46;;;;;;;41.90;20.90;;;;;;;-1.43;80.80;94111.80;110562;1271;22192;-76
2024/01/15 05:24:15;;;;;;;40.80;18.80;;;;;;;-1.41;80.72;94113.86;110628;1274;22105;-77
2024/01/15 05:26:43;;;;;;;5.20;3.40;;;;;;;-1.38;80.58;94117.83;110606;1274;22503;-76
2024/01/15 05:29:11;;;;;;;7.80;3.50;;;;;;;-1.33;81.11;94111.48;110639;1274;22228;-77
2024/01/15 05:31:39;;;;;;;26.70;16.10;;;;;;;-1.28;81.00;94117.17;110606;1274;22095;-77
2024/01/15 05:34:08;;;;;;;5.50;3.50;;;;;;;-1.27;80.96;94119.94;110642;1274;22301;-77
2024/01/15 05:36:36;;;;;;;3.50;2.70;;;;;;;-1.24;80.71;94120.47;110542;1274;22596;-77
2024/01/15 05:39:04;;;;;;;3.30;2.40;;;;;;;-1.19;80.74;94115.31;110612;1274;22319;-77
2024/01/15 05:41:33;;;;;;;4.20;2.90;;;;;;;-1.16;80.94;94118.94;110602;1274;22233;-77
2024/01/15 05:44:01;;;;;;;2.90;1.90;;;;;;;-1.15;81.13;94120.31;110151;1274;583792;-77
2024/01/15 05:46:29;;;;;;;3.20;2.30;;;;;;;-1.13;81.08;94113.94;110597;1274;22084;-77
2024/01/15 05:48:58;;;;;;;3.20;2.00;;;;;;;-1.11;81.19;94117.04;110566;1274;22201;-77
2024/01/15 05:51:26;;;;;;;4.40;2.90;;;;;;;-1.09;81.17;94112.73;110543;1274;22111;-77
2024/01/15 05:53:54;;;;;;;5.70;3.00;;;;;;;-1.09;81.09;94102.04;110661;1274;22134;-77
2024/01/15 05:56:24;;;;;;;4.20;2.90;;;;;;;-1.08;81.11;94103.77;110548;1274;22166;-77
2024/01/15 05:58:52;;;;;;;15.80;10.60;;;;;;;-1.06;81.20;94102.21;110623;1274;22361;-76
2024/01/15 06:01:20;;;;;;;39.90;26.10;;;;;;;-1.04;81.29;94102.39;110600;1274;22157;-78
2024/01/15 06:03:48;;;;;;;19.50;12.90;;;;;;;-1.04;81.22;94094.98;110611;1274;23006;-77
2024/01/15 06:06:17;;;;;;;9.40;5.90;;;;;;;-1.02;81.32;94089.79;110565;1274;22248;-76
2024/01/15 06:08:45;;;;;;;44.30;23.60;;;;;;;-1.03;81.85;94088.76;110594;1274;22219;-76
2024/01/15 06:11:13;;;;;;;64.50;28.80;;;;;;;-1.04;81.52;94092.21;110607;1272;22201;-76
2024/01/15 06:13:41;;;;;;;59.50;28.60;;;;;;;-1.05;81.24;94096.52;110579;1274;22217;-76
2024/01/15 06:16:16;;;;;;;82.70;38.50;;;;;;;-1.05;81.32;94090.81;110532;1274;22167;-76
2024/01/15 06:18:45;;;;;;;24.00;9.60;;;;;;;-1.03;81.28;94093.06;110577;1274;22877;-77
2024/01/15 06:21:14;;;;;;;7.90;4.20;;;;;;;-0.99;81.29;94091.17;110612;1274;22635;-79
2024/01/15 06:23:42;;;;;;;8.30;4.80;;;;;;;-0.93;81.39;94088.42;110594;1274;22340;-76
2024/01/15 06:26:14;;;;;;;7.30;3.70;;;;;;;-0.83;81.70;94086.35;110612;1274;22167;-76
2024/01/15 06:28:42;;;;;;;51.00;26.20;;;;;;;-0.72;82.63;94082.39;110579;1274;22188;-75
2024/01/15 06:31:10;;;;;;;60.80;34.40;;;;;;;-0.67;82.79;94073.07;110578;1274;22961;-76
2024/01/15 06:33:39;;;;;;;44.10;19.20;;;;;;;-0.62;82.34;94082.74;110609;1274;22157;-77
2024/01/15 06:36:07;;;;;;;5.20;3.50;;;;;;;-0.55;82.45;94076.52;110582;1274;22170;-77
2024/01/15 06:38:36;;;;;;;8.00;4.30;;;;;;;-0.38;83.35;94060.08;110558;1274;23015;-79
2024/01/15 06:41:04;;;;;;;5.90;4.20;;;;;;;-0.05;83.57;94062.61;110632;1274;22141;-77
2024/01/15 06:43:32;;;;;;;16.90;9.70;;;;;;;0.19;82.67;94060.63;110591;1274;22203;-77
2024/01/15 06:46:00;;;;;;;7.30;3.80;;;;;;;0.50;82.30;94062.23;110604;1274;22116;-77
2024/01/15 06:48:34;;;;;;;4.00;2.90;;;;;;;0.62;81.55;94050.58;110534;1274;22223;-77
2024/01/15 06:51:02;;;;;;;9.90;4.00;;;;;;;0.67;81.28;94044.15;110594;1274;22177;-77
2024/01/15 06:53:31;;;;;;;17.20;10.00;;;;;;;0.71;81.21;94051.40;110585;1274;22125;-77
2024/01/15 06:55:59;;;;;;;10.50;6.90;;;;;;;0.74;81.09;94058.80;110582;1274;22124;-77
2024/01/15 06:58:27;;;;;;;5.40;3.40;;;;;;;0.84;80.92;94066.19;110496;1274;22351;-79
2024/01/15 07:00:55;;;;;;;3.40;2.30;;;;;;;1.10;80.53;94064.81;110625;1274;22114;-77
2024/01/15 07:03:23;;;;;;;3.30;1.90;;;;;;;1.39;80.30;94059.58;110583;1274;22114;-77
2024/01/15 07:05:52;;;;;;;5.50;2.70;;;;;;;1.49;80.06;94056.02;110588;1274;22135;-77
2024/01/15 07:08:20;;;;;;;6.60;3.50;;;;;;;1.52;79.79;94051.14;110624;1274;22249;-76
2024/01/15 07:10:48;;;;;;;5.20;2.40;;;;;;;1.56;79.49;94049.20;110626;1274;22118;-77
2024/01/15 07:13:17;;;;;;;4.10;2.40;;;;;;;1.68;78.78;94048.05;110602;1274;22129;-76
2024/01/15 07:15:45;;;;;;;3.90;2.20;;;;;;;1.81;78.32;94039.79;110593;1274;22272;-76
2024/01/15 07:18:13;;;;;;;8.60;4.60;;;;;;;1.80;78.48;94048.81;110592;1269;22124;-76
2024/01/15 07:20:42;;;;;;;9.70;4.90;;;;;;;1.70;78.36;94046.65;110578;1274;22185;-77
2024/01/15 07:23:10;;;;;;;2.50;2.00;;;;;;;1.81;77.92;94049.31;110580;1260;22221;-77
2024/01/15 07:25:39;;;;;;;3.30;2.00;;;;;;;1.93;77.76;94047.45;110571;1274;23131;-76
2024/01/15 07:28:07;;;;;;;2.70;1.80;;;;;;;2.01;77.63;94041.83;110511;1274;22304;-76
2024/01/15 07:30:38;;;;;;;4.60;2.40;;;;;;;2.02;77.46;94043.55;110590;1274;22212;-78
2024/01/15 07:33:06;;;;;;;3.20;2.00;;;;;;;2.08;77.50;94052.85;110541;1274;23076;-78
2024/01/15 07:35:35;;;;;;;21.30;10.90;;;;;;;2.14;76.88;94049.14;110564;1274;22327;-77
2024/01/15 07:38:03;;;;;;;62.90;30.60;;;;;;;2.40;75.24;94037.38;110598;1274;22389;-77
2024/01/15 07:40:32;;;;;;;18.80;9.60;;;;;;;2.58;74.59;94030.02;110584;1274;22293;-77
2024/01/15 07:43:00;;;;;;;7.40;4.50;;;;;;;2.73;74.36;94031.05;110519;1274;22611;-78
2024/01/15 07:45:28;;;;;;;24.70;15.60;;;;;;;2.80;74.41;94031.82;110576;1274;22333;-78
2024/01/15 07:47:57;;;;;;;21.80;17.50;;;;;;;2.82;74.45;94035.63;110590;1260;22134;-78
2024/01/15 07:50:25;;;;;;;15.00;12.60;;;;;;;2.77;74.62;94029.79;110609;1274;22187;-78
2024/01/15 07:52:53;;;;;;;15.20;12.10;;;;;;;2.74;74.43;94022.36;110593;1274;22182;-78
2024/01/15 07:55:21;;;;;;;14.30;9.60;;;;;;;2.78;74.59;94016.41;110598;1274;22367;-78
2024/01/15 07:57:50;;;;;;;23.60;12.40;;;;;;;2.82;74.06;94014.08;110608;1274;22188;-78
2024/01/15 08:00:30;;;;;;;16.50;9.20;;;;;;;2.86;74.11;94017.34;110590;1274;22339;-77
2024/01/15 08:02:58;;;;;;;12.70;7.40;;;;;;;2.88;74.38;94015.73;110596;1274;22221;-77
2024/01/15 08:05:26;;;;;;;9.40;6.00;;;;;;;2.90;74.41;94018.31;110607;1274;22174;-78
2024/01/15 08:07:54;;;;;;;11.50;8.20;;;;;;;2.90;74.24;94013.44;110587;1274;22163;-77
2024/01/15 08:10:26;;;;;;;7.60;5.00;;;;;;;2.91;74.24;94012.74;110575;1274;22205;-76
2024/01/15 08:12:54;;;;;;;29.10;20.60;;;;;;;2.92;73.92;94019.33;110604;1274;22198;-77
2024/01/15 08:15:22;;;;;;;90.30;56.10;;;;;;;2.97;73.70;94027.58;110581;1274;22164;-78
2024/01/15 08:17:53;;;;;;;360.10;251.30;;;;;;;3.00;73.90;94031.36;110559;1274;22360;-78
2024/01/15 08:20:21;;;;;;;76.70;56.00;;;;;;;3.02;74.24;94024.39;110563;1274;23160;-78
2024/01/15 08:22:49;;;;;;;6.90;3.70;;;;;;;3.04;75.02;94014.63;110537;1274;22896;-79
2024/01/15 08:25:17;;;;;;;6.40;4.50;;;;;;;2.98;75.80;94009.00;110577;1274;22187;-78
2024/01/15 08:27:45;;;;;;;4.70;3.60;;;;;;;2.91;76.30;94015.35;110546;1274;22452;-77
2024/01/15 08:30:14;;;;;;;5.40;4.30;;;;;;;2.88;76.43;94030.50;110533;1274;22191;-77
2024/01/15 08:32:43;;;;;;;6.60;4.20;;;;;;;2.87;76.69;94033.81;110604;1274;22148;-77
2024/01/15 08:35:11;;;;;;;3.40;2.90;;;;;;;2.86;77.04;94023.41;110572;1274;22403;-79
2024/01/15 08:37:40;;;;;;;5.80;3.00;;;;;;;2.84;77.74;94017.02;110599;1274;23075;-79
2024/01/15 08:40:08;;;;;;;13.10;8.00;;;;;;;2.75;78.16;94016.45;110577;1274;22405;-78
2024/01/15 08:42:36;;;;;;;9.10;5.20;;;;;;;2.71;78.09;94017.20;110596;1274;22196;-80
2024/01/15 08:45:05;;;;;;;3.90;2.70;;;;;;;2.67;78.99;94024.88;110568;1274;22441;-82
2024/01/15 08:47:34;;;;;;;3.40;2.60;;;;;;;2.65;79.55;94030.83;110572;1274;22347;-81
2024/01/15 08:50:04;;;;;;;3.00;2.20;;;;;;;2.63;79.63;94045.77;110585;1272;22165;-78
2024/01/15 08:52:32;;;;;;;2.80;2.10;;;;;;;2.66;79.91;94050.25;110528;1274;22572;-80
2024/01/15 08:55:00;;;;;;;1.70;1.20;;;;;;;2.65;79.79;94050.95;110580;1274;22885;-79
2024/01/15 08:57:29;;;;;;;2.40;1.60;;;;;;;2.65;79.58;94054.08;110565;1274;22111;-79
2024/01/15 08:59:58;;;;;;;2.90;2.50;;;;;;;2.63;79.66;94056.72;110553;1274;22151;-78
2024/01/15 09:02:26;;;;;;;8.30;5.40;;;;;;;2.57;80.05;94050.02;110576;1274;22113;-79
2024/01/15 09:04:54;;;;;;;4.10;1.60;;;;;;;2.56;80.42;94036.30;110591;1263;22896;-80
2024/01/15 09:07:24;;;;;;;15.70;8.90;;;;;;;2.53;81.07;94032.02;110588;1274;22215;-78
2024/01/15 09:09:53;;;;;;;22.40;11.40;;;;;;;2.55;81.24;94033.55;110523;1274;22137;-79
2024/01/15 09:12:22;;;;;;;16.00;6.70;;;;;;;2.62;81.37;94039.70;110535;1274;22331;-78
2024/01/15 09:14:50;;;;;;;8.90;4.80;;;;;;;2.71;81.58;94033.17;110611;1274;22723;-79
2024/01/15 09:17:18;;;;;;;9.60;5.50;;;;;;;2.79;82.00;94025.05;110570;1274;22131;-77
2024/01/15 09:19:46;;;;;;;4.40;2.80;;;;;;;2.90;81.86;94027.52;110574;1270;22152;-78
2024/01/15 09:22:18;;;;;;;9.50;5.80;;;;;;;2.96;81.65;94030.91;110511;1274;23439;-78
2024/01/15 09:24:47;;;;;;;9.60;6.20;;;;;;;3.00;81.74;94025.98;110513;1274;22342;-80
2024/01/15 09:27:15;;;;;;;9.30;5.40;;;;;;;2.96;82.37;94025.88;110572;1267;23290;-80
2024/01/15 09:29:45;;;;;;;6.50;4.00;;;;;;;2.99;82.10;94029.12;110580;1269;23015;-79
2024/01/15 09:32:13;;;;;;;5.30;3.50;;;;;;;3.06;82.25;94024.33;110595;1274;22171;-79
2024/01/15 09:34:41;;;;;;;4.40;2.80;;;;;;;3.18;82.30;94022.75;110584;1274;22998;-78
2024/01/15 09:37:10;;;;;;;8.50;5.10;;;;;;;3.27;82.12;94020.70;110582;1274;22186;-79
2024/01/15 09:39:48;;;;;;;6.50;3.80;;;;;;;3.39;81.93;94017.22;110557;1274;22213;-79
2024/01/15 09:42:17;;;;;;;9.30;6.10;;;;;;;3.45;81.71;94013.98;110592;1274;22181;-77
2024/01/15 09:44:49;;;;;;;10.50;6.80;;;;;;;3.51;81.64;94017.55;110536;1274;22171;-78
2024/01/15 09:47:18;;;;;;;9.00;5.70;;;;;;;3.44;81.58;94015.02;110539;1274;22338;-81
2024/01/15 09:49:47;;;;;;;10.00;5.80;;;;;;;3.37;81.10;94016.38;110585;1274;22889;-78
2024/01/15 09:52:18;;;;;;;10.20;5.50;;;;;;;3.28;81.61;94018.27;110598;1274;22122;-78
2024/01/15 09:54:47;;;;;;;8.40;5.00;;;;;;;3.28;81.58;94014.77;110548;1274;22173;-79
2024/01/15 09:57:16;;;;;;;9.50;6.70;;;;;;;3.31;81.95;94011.09;110562;1274;22088;-80
2024/01/15 09:59:45;;;;;;;10.60;7.10;;;;;;;3.34;81.77;94004.44;110573;1274;22428;-78
2024/01/15 10:02:17;;;;;;;51.50;25.70;;;;;;;3.33;81.63;94007.56;110620;1274;22164;-78
2024/01/15 10:04:46;;;;;;;26.20;15.40;;;;;;;3.30;81.99;94008.16;110578;1274;22104;-79
2024/01/15 10:07:19;;;;;;;16.10;10.00;;;;;;;3.27;81.75;94006.11;110573;1274;22177;-78
2024/01/15 10:09:47;;;;;;;;;;;;;;;3.24;81.90;94010.85;110537;1274;23044;-78
2024/01/15 10:12:16;;;;;;;27.90;12.70;;;;;;;3.11;81.69;94011.58;110566;1274;22300;-79
2024/01/15 10:14:44;;;;;;;27.50;15.10;;;;;;;3.10;82.62;94008.98;110580;1274;23297;-79
2024/01/15 10:17:17;;;;;;;16.60;9.50;;;;;;;3.15;83.00;94005.59;110550;1274;22376;-78
2024/01/15 10:19:46;;;;;;;8.40;5.40;;;;;;;3.22;82.98;94010.88;110565;1274;22259;-78
2024/01/15 10:22:17;;;;;;;37.80;19.10;;;;;;;3.27;82.53;94006.48;110595;1274;22361;-78
2024/01/15 10:24:46;;;;;;;12.90;8.50;;;;;;;3.30;82.04;94009.37;110554;1274;22295;-78
2024/01/15 10:27:16;;;;;;;8.80;4.90;;;;;;;3.28;81.79;94009.05;110545;1274;23137;-78
2024/01/15 10:29:45;;;;;;;12.10;6.90;;;;;;;3.25;81.36;94006.14;110535;1274;22115;-78
2024/01/15 10:32:13;;;;;;;8.30;5.80;;;;;;;3.17;81.36;94008.87;110609;1274;22101;-78
2024/01/15 10:34:42;;;;;;;6.30;4.20;;;;;;;3.08;81.12;94018.73;110592;1274;22143;-77
2024/01/15 10:37:11;;;;;;;15.50;9.40;;;;;;;2.98;81.13;94015.60;110633;1274;22205;-78
2024/01/15 10:39:39;;;;;;;5.90;3.60;;;;;;;2.91;81.59;94013.80;110594;1274;22317;-78
2024/01/15 10:42:08;;;;;;;4.30;2.70;;;;;;;2.80;81.61;94017.58;110593;1274;22345;-78
2024/01/15 10:44:36;;;;;;;3.90;2.50;;;;;;;2.74;81.49;94018.89;110560;1274;22830;-79
2024/01/15 10:47:05;;;;;;;3.10;1.80;;;;;;;2.70;81.74;94023.46;110582;1274;22121;-78
2024/01/15 10:49:33;;;;;;;4.40;2.20;;;;;;;2.65;82.02;94021.27;110598;1274;22488;-78
2024/01/15 10:52:03;;;;;;;3.60;2.40;;;;;;;2.65;81.77;94022.14;110629;1274;22155;-79
2024/01/15 10:54:32;;;;;;;4.50;2.60;;;;;;;2.61;82.15;94024.27;110603;1274;22166;-79
2024/01/15 10:57:02;;;;;;;4.30;2.40;;;;;;;2.58;82.08;94027.77;110533;1274;22195;-77
2024/01/15 10:59:31;;;;;;;5.40;3.40;;;;;;;2.49;82.19;94029.64;110618;1274;22144;-78
2024/01/15 11:01:59;;;;;;;5.40;4.40;;;;;;;2.41;82.21;94029.56;110537;1274;22120;-78
2024/01/15 11:04:28;;;;;;;6.00;3.50;;;;;;;2.30;82.35;94031.09;110593;1274;22588;-78
2024/01/15 11:06:57;;;;;;;6.80;4.40;;;;;;;2.20;82.52;94031.73;110592;1274;22160;-78
2024/01/15 11:09:25;;;;;;;6.20;4.70;;;;;;;2.06;82.86;94032.40;110583;1274;22236;-77
2024/01/15 11:12:10;;;;;;;6.20;3.70;;;;;;;1.90;83.13;94029.80;110619;1274;22147;-78
2024/01/15 11:14:40;;;;;;;5.00;3.40;;;;;;;1.71;83.66;94026.37;110599;1274;22205;-78
2024/01/15 11:17:09;;;;;;;4.10;3.00;;;;;;;1.55;84.02;94023.55;110541;1274;22939;-77
2024/01/15 11:19:50;;;;;;;3.80;2.90;;;;;;;1.38;84.51;94021.82;110535;1274;22295;-78
2024/01/15 11:22:32;;;;;;;4.60;3.10;;;;;;;1.26;85.18;94017.75;110628;1274;22058;-78
2024/01/15 11:25:13;;;;;;;3.90;3.20;;;;;;;1.21;85.04;94016.42;110589;1274;22155;-78
2024/01/15 11:27:52;;;;;;;4.20;3.30;;;;;;;1.13;85.48;94012.67;110572;1274;23200;-77
2024/01/15 11:30:25;;;;;;;4.60;3.30;;;;;;;1.04;85.86;94015.67;110601;1274;22157;-78